Time;durP1;ratioP1;P1;durP2;ratioP2;P2;SDS_P1;SDS_P2;PMS_P1;PMS_P2;Temp;Humidity;BMP_temperature;BMP_pressure;BME280_temperature;BME280_humidity;BME280_pressure;Samples;Min_cycle;Max_cycle;Signal;HPM_P1;HPM_P2
2022/06/04 00:01:25;;;;;;;7.75;6.45;;;22.80;11.50;;;;;;5012371;28;20040;-50
2022/06/04 00:03:50;;;;;;;10.45;7.18;;;22.80;11.20;;;;;;5013590;28;20018;-45
2022/06/04 00:06:16;;;;;;;8.57;7.75;;;22.70;11.30;;;;;;5012095;28;20030;-46
2022/06/04 00:08:41;;;;;;;7.47;6.75;;;22.60;11.40;;;;;;4997830;28;20030;-49
2022/06/04 00:16:35;;;;;;;10.65;7.72;;;22.70;11.60;;;;;;5011570;28;20392;-50
2022/06/04 00:19:01;;;;;;;9.25;7.40;;;22.70;11.50;;;;;;5012653;28;20018;-46
2022/06/04 00:21:27;;;;;;;8.80;7.80;;;22.70;11.30;;;;;;5011856;28;20048;-44
2022/06/04 00:23:52;;;;;;;10.90;7.20;;;22.70;11.50;;;;;;5013039;28;20022;-48
2022/06/04 00:26:19;;;;;;;9.02;7.25;;;22.60;11.90;;;;;;5012039;28;20046;-45
2022/06/04 00:28:47;;;;;;;8.48;6.40;;;22.60;11.70;;;;;;5012857;28;20109;-47
2022/06/04 00:31:18;;;;;;;9.57;7.05;;;22.60;11.40;;;;;;5011508;28;20109;-48
2022/06/04 00:33:43;;;;;;;10.35;6.97;;;22.60;11.90;;;;;;5010270;28;20057;-48
2022/06/04 00:36:09;;;;;;;10.77;7.40;;;22.60;11.80;;;;;;5013135;28;20464;-48
2022/06/04 00:38:35;;;;;;;9.93;6.38;;;22.60;11.40;;;;;;5012184;28;20484;-45
2022/06/04 00:41:20;;;;;;;8.82;6.45;;;22.60;11.40;;;;;;5013105;28;20109;-46
2022/06/04 00:54:44;;;;;;;9.02;6.10;;;22.40;11.90;;;;;;4998041;28;20108;-45
2022/06/04 00:57:31;;;;;;;11.15;6.53;;;22.40;11.80;;;;;;5005423;28;20365;-45
2022/06/04 01:00:23;;;;;;;11.05;6.28;;;22.20;12.20;;;;;;5010189;28;20408;-44
2022/06/04 01:03:03;;;;;;;9.23;6.85;;;22.40;12.40;;;;;;5011604;28;20484;-46
2022/06/04 01:05:48;;;;;;;9.52;6.30;;;22.30;12.20;;;;;;5011389;28;20105;-45
2022/06/04 01:08:28;;;;;;;10.13;6.97;;;22.30;11.80;;;;;;5011791;28;20034;-48
2022/06/04 01:11:16;;;;;;;8.85;7.40;;;22.30;12.10;;;;;;5000297;28;20034;-46
2022/06/04 01:14:00;;;;;;;9.18;6.72;;;22.30;12.40;;;;;;5008484;28;20084;-47
2022/06/04 01:16:31;;;;;;;7.35;6.25;;;22.40;11.90;;;;;;5010587;28;20029;-47
2022/06/04 01:19:10;;;;;;;8.80;6.15;;;22.30;11.80;;;;;;5012599;28;20030;-46
2022/06/04 01:21:53;;;;;;;8.93;6.55;;;22.30;12.00;;;;;;5011485;28;20109;-46
2022/06/04 01:24:49;;;;;;;7.20;6.53;;;22.40;11.70;;;;;;4999179;28;20025;-46
2022/06/04 01:27:28;;;;;;;7.28;5.85;;;22.30;12.10;;;;;;5008722;28;20023;-46
2022/06/04 01:30:17;;;;;;;8.35;5.93;;;22.30;11.90;;;;;;5010403;28;20038;-45
2022/06/04 01:33:22;;;;;;;6.47;5.70;;;22.30;12.00;;;;;;5011096;28;20379;-45
2022/06/04 01:35:51;;;;;;;8.07;5.88;;;22.30;12.00;;;;;;5011938;28;20030;-50
2022/06/04 01:38:24;;;;;;;7.55;5.93;;;22.30;11.80;;;;;;5010622;28;20510;-48
2022/06/04 01:41:03;;;;;;;8.73;6.35;;;22.30;11.70;;;;;;5014705;28;20026;-48
2022/06/04 01:43:35;;;;;;;8.70;5.97;;;22.30;11.70;;;;;;5013912;28;20068;-45
2022/06/04 01:46:11;;;;;;;10.88;6.60;;;22.30;11.50;;;;;;5012357;28;20113;-46
2022/06/04 01:48:40;;;;;;;8.70;6.72;;;22.30;11.80;;;;;;5012924;28;20395;-45
2022/06/04 01:51:07;;;;;;;9.32;6.43;;;22.30;11.70;;;;;;5014293;28;20038;-45
2022/06/04 01:53:36;;;;;;;7.38;6.25;;;22.20;11.80;;;;;;5013965;28;20022;-45
2022/06/04 01:56:07;;;;;;;8.32;5.85;;;22.10;12.50;;;;;;5015245;28;20033;-45
2022/06/04 01:58:50;;;;;;;8.27;5.93;;;22.10;12.40;;;;;;5010483;28;20066;-45
2022/06/04 02:01:20;;;;;;;8.43;6.00;;;22.10;12.50;;;;;;5014658;28;20061;-45
2022/06/04 02:03:54;;;;;;;7.72;6.25;;;22.10;12.10;;;;;;5003010;28;20456;-46
2022/06/04 02:06:27;;;;;;;6.45;5.82;;;22.10;12.30;;;;;;5013210;28;20042;-47
2022/06/04 02:09:00;;;;;;;9.00;6.03;;;22.10;12.40;;;;;;5002597;28;20034;-45
2022/06/04 02:11:26;;;;;;;7.82;6.28;;;22.10;12.20;;;;;;5014932;28;20026;-46
2022/06/04 02:13:58;;;;;;;8.45;6.10;;;22.00;12.20;;;;;;5002336;28;20087;-46
2022/06/04 02:16:45;;;;;;;7.15;5.82;;;22.00;12.30;;;;;;5013350;28;20483;-46
2022/06/04 02:19:10;;;;;;;8.63;6.35;;;22.10;12.60;;;;;;5001697;28;20072;-47
2022/06/04 02:21:37;;;;;;;6.53;5.55;;;22.10;12.30;;;;;;5014448;28;20058;-47
2022/06/04 02:24:04;;;;;;;7.00;6.00;;;22.10;12.00;;;;;;5013565;28;20422;-46
2022/06/04 02:26:29;;;;;;;10.52;6.45;;;22.10;11.80;;;;;;5013450;28;20083;-47
2022/06/04 02:28:58;;;;;;;7.45;5.60;;;22.10;11.80;;;;;;5013017;28;20021;-47
2022/06/04 02:31:42;;;;;;;8.93;5.53;;;22.10;11.70;;;;;;5015278;28;20026;-47
2022/06/04 02:34:25;;;;;;;7.50;5.35;;;22.10;12.00;;;;;;5014512;28;20498;-47
2022/06/04 02:36:55;;;;;;;7.20;5.07;;;22.10;11.80;;;;;;5013880;28;20036;-46
2022/06/04 02:39:26;;;;;;;8.43;5.22;;;22.00;12.00;;;;;;5013876;28;20045;-46
2022/06/04 02:42:19;;;;;;;9.18;5.43;;;22.00;12.00;;;;;;5013777;28;20466;-49
2022/06/04 02:44:55;;;;;;;6.65;5.25;;;22.00;12.40;;;;;;4975137;28;20041;-49
2022/06/04 02:47:26;;;;;;;7.38;5.10;;;22.00;12.00;;;;;;5013570;28;20033;-48
2022/06/04 02:50:27;;;;;;;6.30;4.45;;;22.00;12.10;;;;;;5014707;28;20041;-50
2022/06/04 02:52:55;;;;;;;8.55;5.32;;;22.00;11.90;;;;;;5003120;28;20029;-47
2022/06/04 02:55:24;;;;;;;11.40;5.75;;;22.00;12.00;;;;;;5013064;28;20034;-49
2022/06/04 02:57:53;;;;;;;9.07;5.13;;;22.00;12.00;;;;;;5002379;28;20476;-48
2022/06/04 03:00:22;;;;;;;9.45;5.32;;;21.90;11.90;;;;;;5013145;28;20030;-50
2022/06/04 03:02:49;;;;;;;5.95;5.15;;;21.90;12.00;;;;;;5010724;28;20026;-50
2022/06/04 03:05:18;;;;;;;7.85;5.32;;;22.00;11.90;;;;;;5005970;28;20496;-46
2022/06/04 03:07:46;;;;;;;7.28;4.97;;;22.00;11.80;;;;;;5008419;28;20379;-45
2022/06/04 03:10:31;;;;;;;5.90;4.80;;;21.90;11.90;;;;;;5013058;28;20128;-45
2022/06/04 03:12:56;;;;;;;6.38;4.47;;;22.00;12.00;;;;;;4999667;28;20480;-46
2022/06/04 03:15:22;;;;;;;8.13;5.95;;;22.00;11.80;;;;;;5013309;28;20048;-45
2022/06/04 03:17:49;;;;;;;7.28;5.13;;;21.90;11.90;;;;;;5013280;28;20014;-45
2022/06/04 03:20:19;;;;;;;7.63;5.20;;;21.90;12.10;;;;;;5000347;28;20118;-45
2022/06/04 03:22:45;;;;;;;8.02;6.63;;;21.90;11.80;;;;;;5013257;28;20022;-45
2022/06/04 03:25:11;;;;;;;9.35;5.47;;;21.90;11.80;;;;;;5013927;28;20026;-45
2022/06/04 03:27:37;;;;;;;7.75;5.95;;;21.90;11.80;;;;;;5013517;28;20036;-45
2022/06/04 03:33:25;;;;;;;7.63;5.50;;;21.90;12.10;;;;;;4998969;28;20041;-45
2022/06/04 03:35:50;;;;;;;9.82;5.53;;;21.90;11.80;;;;;;5002486;28;20030;-45
2022/06/04 03:38:16;;;;;;;9.43;5.20;;;22.00;11.90;;;;;;5012267;28;20029;-45
2022/06/04 03:40:41;;;;;;;7.90;5.65;;;21.90;12.00;;;;;;5012564;28;20029;-47
2022/06/04 03:43:07;;;;;;;6.95;5.47;;;21.90;11.90;;;;;;5012634;28;20472;-45
2022/06/04 03:45:33;;;;;;;6.93;5.65;;;21.90;12.00;;;;;;5013754;28;20061;-46
2022/06/04 03:47:58;;;;;;;8.10;6.10;;;21.90;12.10;;;;;;5012820;28;20033;-45
2022/06/04 03:50:29;;;;;;;8.00;5.65;;;21.90;12.10;;;;;;5013512;28;20515;-45
2022/06/04 03:52:55;;;;;;;6.38;5.25;;;21.90;12.20;;;;;;5012234;28;20069;-45
2022/06/04 03:55:21;;;;;;;7.60;5.95;;;21.90;12.10;;;;;;5013460;28;20100;-47
2022/06/04 03:57:49;;;;;;;8.15;5.90;;;21.90;12.20;;;;;;5012286;28;20496;-44
2022/06/04 04:00:28;;;;;;;8.48;6.03;;;21.90;12.40;;;;;;5013772;28;20034;-46
2022/06/04 04:02:57;;;;;;;9.90;6.22;;;21.90;12.40;;;;;;5011013;28;20018;-44
2022/06/04 04:05:27;;;;;;;8.32;6.00;;;21.90;12.30;;;;;;5013516;28;20080;-45
2022/06/04 04:07:54;;;;;;;9.27;5.15;;;21.90;12.50;;;;;;5009221;28;20022;-45
2022/06/04 04:10:21;;;;;;;7.25;5.55;;;21.90;12.40;;;;;;5005675;28;20574;-47
2022/06/04 04:12:46;;;;;;;6.63;5.95;;;21.90;12.50;;;;;;5012376;28;20502;-45
2022/06/04 04:15:13;;;;;;;11.95;6.88;;;21.90;12.50;;;;;;5013063;28;20043;-45
2022/06/04 04:17:39;;;;;;;5.75;5.15;;;21.80;13.00;;;;;;5013546;28;20033;-47
2022/06/04 04:20:14;;;;;;;10.90;6.38;;;21.90;12.80;;;;;;5010948;28;20046;-46
2022/06/04 04:22:41;;;;;;;9.57;6.63;;;21.90;13.10;;;;;;5012485;28;20507;-47
2022/06/04 04:25:08;;;;;;;10.90;7.22;;;21.90;12.90;;;;;;5012177;28;20029;-45
2022/06/04 04:27:34;;;;;;;7.80;6.32;;;21.90;12.90;;;;;;5013338;28;20113;-49
2022/06/04 04:30:00;;;;;;;10.25;6.07;;;21.90;13.00;;;;;;5012191;28;20478;-45
2022/06/04 04:32:26;;;;;;;8.02;6.90;;;21.90;12.90;;;;;;5013120;28;20014;-46
2022/06/04 04:34:52;;;;;;;7.80;6.30;;;21.90;13.00;;;;;;5010978;28;20199;-47
2022/06/04 04:37:18;;;;;;;7.45;6.57;;;21.90;13.10;;;;;;5011849;28;20396;-48
2022/06/04 04:39:43;;;;;;;9.63;6.60;;;21.90;13.00;;;;;;5010817;28;20029;-49
2022/06/04 04:42:10;;;;;;;7.13;6.43;;;21.90;12.90;;;;;;5011693;28;20018;-45
2022/06/04 04:44:36;;;;;;;7.55;6.68;;;21.90;13.10;;;;;;5011958;28;20131;-49
2022/06/04 04:47:01;;;;;;;8.25;6.43;;;22.00;13.10;;;;;;5012997;28;20464;-50
2022/06/04 04:49:27;;;;;;;7.25;6.30;;;22.00;13.00;;;;;;5011929;28;20045;-48
2022/06/04 04:51:53;;;;;;;10.05;7.93;;;22.00;13.00;;;;;;5012852;28;20033;-45
2022/06/04 04:57:41;;;;;;;7.57;6.68;;;22.00;13.40;;;;;;4996219;28;20455;-45
2022/06/04 05:00:08;;;;;;;9.52;7.72;;;21.90;13.30;;;;;;5012832;28;20018;-46
2022/06/04 05:02:34;;;;;;;9.25;7.28;;;22.00;13.20;;;;;;5012823;28;20498;-45
2022/06/04 05:05:00;;;;;;;9.48;8.18;;;22.00;13.50;;;;;;5011736;28;20109;-45
2022/06/04 05:07:26;;;;;;;9.13;7.68;;;22.00;13.40;;;;;;5012157;28;20536;-47
2022/06/04 05:09:51;;;;;;;9.13;8.23;;;22.10;13.30;;;;;;5011912;28;20046;-48
2022/06/04 05:12:17;;;;;;;9.88;7.93;;;22.10;13.20;;;;;;5012693;28;20396;-47
2022/06/04 05:14:43;;;;;;;9.18;7.82;;;22.10;13.20;;;;;;5012256;28;20038;-47
2022/06/04 05:17:08;;;;;;;7.85;7.15;;;22.20;13.10;;;;;;5016474;28;20022;-45
2022/06/04 05:19:34;;;;;;;9.57;7.88;;;22.20;13.00;;;;;;5015606;28;20034;-46
2022/06/04 05:22:00;;;;;;;9.68;7.90;;;22.30;12.90;;;;;;5016061;28;20037;-46
2022/06/04 05:24:31;;;;;;;10.65;7.78;;;22.30;12.70;;;;;;5014381;28;20037;-46
2022/06/04 05:26:58;;;;;;;10.50;7.85;;;22.30;12.50;;;;;;5008997;28;20010;-46
2022/06/04 05:29:24;;;;;;;12.55;8.38;;;22.40;12.40;;;;;;5010462;28;20046;-45
2022/06/04 05:31:52;;;;;;;9.57;8.63;;;22.50;12.30;;;;;;5012908;28;20101;-46
2022/06/04 05:34:18;;;;;;;9.60;8.02;;;22.50;12.30;;;;;;5014967;28;20065;-45
2022/06/04 05:36:45;;;;;;;11.98;8.68;;;22.50;12.20;;;;;;5016271;28;20084;-45
2022/06/04 05:39:12;;;;;;;10.05;8.93;;;22.60;12.10;;;;;;5015179;28;20034;-47
2022/06/04 05:41:38;;;;;;;13.07;9.93;;;22.60;12.00;;;;;;5014939;28;20061;-45
2022/06/04 05:44:05;;;;;;;13.60;10.65;;;22.50;11.80;;;;;;5014781;28;20022;-47
2022/06/04 05:46:30;;;;;;;12.80;9.88;;;22.60;12.20;;;;;;5015675;28;20093;-45
2022/06/04 05:48:56;;;;;;;11.05;9.38;;;22.50;11.90;;;;;;5014904;28;20439;-47
2022/06/04 05:51:25;;;;;;;10.35;9.35;;;22.50;11.80;;;;;;5014785;28;20037;-45
2022/06/04 05:53:53;;;;;;;12.80;10.40;;;22.50;11.90;;;;;;5010745;28;20075;-45
2022/06/04 05:56:29;;;;;;;10.55;9.18;;;22.60;11.80;;;;;;5015928;28;20037;-45
2022/06/04 05:59:03;;;;;;;11.13;8.65;;;22.60;11.80;;;;;;5013746;28;20392;-45
2022/06/04 06:01:31;;;;;;;11.77;9.50;;;22.70;11.70;;;;;;5014568;28;20526;-47
2022/06/04 06:03:58;;;;;;;14.13;9.55;;;22.70;11.60;;;;;;5015372;28;20351;-45
2022/06/04 06:06:27;;;;;;;11.20;9.82;;;22.70;11.70;;;;;;5014971;28;20495;-45
2022/06/04 06:08:55;;;;;;;10.93;9.20;;;22.80;11.60;;;;;;5015651;28;20033;-50
2022/06/04 06:11:21;;;;;;;10.13;9.13;;;22.70;11.50;;;;;;5014491;28;20057;-45
2022/06/04 06:13:48;;;;;;;12.32;9.80;;;22.80;11.50;;;;;;5014248;28;20376;-45
2022/06/04 06:16:20;;;;;;;14.45;10.45;;;22.70;11.40;;;;;;5014496;28;20029;-45
2022/06/04 06:18:46;;;;;;;13.38;10.73;;;22.80;11.40;;;;;;5015580;28;20503;-45
2022/06/04 06:21:15;;;;;;;13.93;10.90;;;22.90;11.30;;;;;;5001698;28;20046;-45
2022/06/04 06:23:42;;;;;;;11.70;10.43;;;22.90;11.70;;;;;;5014023;28;20084;-47
2022/06/04 06:26:14;;;;;;;11.52;10.30;;;22.80;11.10;;;;;;5008221;28;20022;-45
2022/06/04 06:28:41;;;;;;;11.13;9.93;;;22.90;10.80;;;;;;5015251;28;20053;-45
2022/06/04 06:31:08;;;;;;;12.68;10.98;;;23.00;11.10;;;;;;5013888;28;20080;-45
2022/06/04 06:33:34;;;;;;;14.43;10.70;;;23.00;10.90;;;;;;5015177;28;20030;-45
2022/06/04 06:36:03;;;;;;;12.15;10.73;;;23.10;10.80;;;;;;5013115;28;20096;-45
2022/06/04 06:38:29;;;;;;;13.02;10.35;;;23.10;10.70;;;;;;5013855;28;20056;-45
2022/06/04 06:40:56;;;;;;;14.32;10.30;;;23.10;10.50;;;;;;5014158;28;20065;-45
2022/06/04 06:43:23;;;;;;;11.68;9.60;;;23.10;10.20;;;;;;5014970;28;20472;-45
2022/06/04 06:45:49;;;;;;;12.98;9.88;;;23.10;10.00;;;;;;5012330;28;20546;-45
2022/06/04 06:48:15;;;;;;;13.18;11.20;;;23.20;9.70;;;;;;5013482;28;20038;-45
2022/06/04 06:50:42;;;;;;;14.05;10.23;;;23.20;9.60;;;;;;5012838;28;20030;-45
2022/06/04 06:53:08;;;;;;;12.88;10.50;;;23.20;9.50;;;;;;5014681;28;20033;-46
2022/06/04 06:55:34;;;;;;;13.70;10.80;;;23.30;9.60;;;;;;5013427;28;20026;-44
2022/06/04 06:58:00;;;;;;;11.43;10.25;;;23.20;9.70;;;;;;5014430;28;20025;-45
2022/06/04 07:00:25;;;;;;;12.30;10.30;;;23.30;9.40;;;;;;5013749;28;20053;-45
2022/06/04 07:02:51;;;;;;;13.43;9.20;;;23.40;9.20;;;;;;5008315;28;20022;-46
2022/06/04 07:05:17;;;;;;;12.15;10.63;;;23.40;9.20;;;;;;5011234;28;20029;-47
2022/06/04 07:07:42;;;;;;;14.48;9.80;;;23.50;9.10;;;;;;5009643;28;20037;-45
2022/06/04 07:10:09;;;;;;;10.07;9.10;;;23.40;9.20;;;;;;5003317;28;20030;-45
2022/06/04 07:12:35;;;;;;;9.65;8.63;;;23.50;8.70;;;;;;5013471;28;20018;-44
2022/06/04 07:15:00;;;;;;;11.30;7.82;;;23.50;8.70;;;;;;5010649;28;20048;-44
2022/06/04 07:17:26;;;;;;;8.98;7.18;;;23.50;8.10;;;;;;5014364;28;20041;-45
2022/06/04 07:19:53;;;;;;;11.50;7.53;;;23.50;7.80;;;;;;5011809;28;20049;-45
2022/06/04 07:22:19;;;;;;;8.88;7.78;;;23.50;7.70;;;;;;5014266;28;20038;-45
2022/06/04 07:24:45;;;;;;;7.88;6.50;;;23.50;7.40;;;;;;5012569;28;20751;-48
2022/06/04 07:27:11;;;;;;;9.30;7.47;;;23.60;7.30;;;;;;5014091;28;20109;-45
2022/06/04 07:29:37;;;;;;;9.02;6.72;;;23.60;7.00;;;;;;5013051;28;20030;-45
2022/06/04 07:32:04;;;;;;;7.22;6.45;;;23.70;7.00;;;;;;5013936;28;20415;-46
2022/06/04 07:34:31;;;;;;;9.27;6.32;;;23.80;6.40;;;;;;5013274;28;20017;-44
2022/06/04 07:36:56;;;;;;;16.40;6.63;;;23.90;5.90;;;;;;5012689;28;20435;-44
2022/06/04 07:39:22;;;;;;;9.13;6.55;;;24.00;5.70;;;;;;5012586;28;20030;-45
2022/06/04 07:41:53;;;;;;;10.05;6.63;;;24.00;5.70;;;;;;5012760;28;20068;-45
2022/06/04 07:44:20;;;;;;;8.65;7.35;;;24.10;5.20;;;;;;5000776;28;20032;-45
2022/06/04 07:46:47;;;;;;;8.20;6.50;;;24.10;5.30;;;;;;5011805;28;20040;-45
2022/06/04 07:49:14;;;;;;;9.35;6.32;;;24.00;5.30;;;;;;5013502;28;20030;-45
2022/06/04 07:51:42;;;;;;;9.38;6.93;;;24.10;5.20;;;;;;5012290;28;20036;-45
2022/06/04 07:54:08;;;;;;;11.25;7.57;;;24.10;4.70;;;;;;5013512;28;20101;-45
2022/06/04 07:56:36;;;;;;;8.70;7.80;;;24.10;4.60;;;;;;5012637;28;20034;-46
2022/06/04 07:59:02;;;;;;;10.77;7.65;;;24.10;4.80;;;;;;5013429;28;20018;-45
2022/06/04 08:01:28;;;;;;;10.57;8.57;;;24.10;4.80;;;;;;5012587;28;20026;-45
2022/06/04 08:03:54;;;;;;;12.55;8.32;;;24.10;4.70;;;;;;5013496;28;20384;-44
2022/06/04 08:06:21;;;;;;;8.70;7.20;;;24.20;4.80;;;;;;5012372;28;20030;-45
2022/06/04 08:08:50;;;;;;;8.82;7.70;;;24.20;4.80;;;;;;5000851;28;20112;-45
2022/06/04 08:11:31;;;;;;;9.88;6.90;;;24.30;4.60;;;;;;5009624;28;20140;-45
2022/06/04 08:13:59;;;;;;;9.45;7.53;;;24.30;4.50;;;;;;5012332;28;20309;-48
2022/06/04 08:16:25;;;;;;;8.02;7.10;;;24.30;4.70;;;;;;5002364;28;20030;-45
2022/06/04 08:18:51;;;;;;;8.55;6.22;;;24.30;4.10;;;;;;5041099;28;20029;-47
2022/06/04 08:21:16;;;;;;;13.38;6.28;;;24.40;4.10;;;;;;5012094;28;20053;-45
2022/06/04 08:23:44;;;;;;;7.93;7.13;;;24.50;3.70;;;;;;5013291;28;20072;-44
2022/06/04 08:26:11;;;;;;;10.90;6.03;;;24.60;3.80;;;;;;5005120;28;20040;-50
2022/06/04 08:28:37;;;;;;;8.27;5.95;;;24.60;3.30;;;;;;5013227;28;20507;-51
2022/06/04 08:31:06;;;;;;;5.95;5.22;;;24.60;3.00;;;;;;5010616;28;20077;-50
2022/06/04 08:33:33;;;;;;;10.75;5.85;;;24.60;2.50;;;;;;5013115;28;20113;-47
2022/06/04 08:35:58;;;;;;;7.03;5.15;;;24.70;1.50;;;;;;5011584;28;20049;-47
2022/06/04 08:38:24;;;;;;;7.43;5.50;;;24.70;1.60;;;;;;5013088;28;20030;-48
2022/06/04 08:40:57;;;;;;;8.15;5.60;;;24.80;1.80;;;;;;5008838;28;20404;-46
2022/06/04 08:43:35;;;;;;;6.05;3.72;;;24.80;1.00;;;;;;5011885;28;20084;-50
2022/06/04 08:46:12;;;;;;;6.95;3.38;;;24.90;1.00;;;;;;5011772;28;20038;-48
2022/06/04 08:48:38;;;;;;;3.95;3.50;;;25.00;1.00;;;;;;5014462;28;20022;-45
2022/06/04 08:51:11;;;;;;;7.28;3.63;;;25.00;1.00;;;;;;5015660;28;20042;-45
2022/06/04 08:53:37;;;;;;;8.07;4.13;;;25.00;1.00;;;;;;5017239;28;20405;-49
2022/06/04 08:59:25;;;;;;;5.45;3.83;;;24.90;1.00;;;;;;5017104;28;20118;-47
2022/06/04 09:02:01;;;;;;;7.13;4.00;;;25.00;1.00;;;;;;5013492;28;20034;-46
2022/06/04 09:04:44;;;;;;;5.68;4.03;;;25.00;1.00;;;;;;5016703;28;20476;-45
2022/06/04 09:07:14;;;;;;;8.00;3.80;;;25.10;1.00;;;;;;5015564;28;20550;-46
2022/06/04 09:09:55;;;;;;;5.05;3.30;;;25.10;1.00;;;;;;5015704;28;20072;-47
2022/06/04 09:12:41;;;;;;;5.38;3.45;;;25.20;1.00;;;;;;5016077;28;20117;-47
2022/06/04 09:15:30;;;;;;;6.07;3.53;;;25.20;1.00;;;;;;5010210;28;20027;-47
2022/06/04 09:17:58;;;;;;;4.78;3.20;;;25.30;1.00;;;;;;5016374;28;20032;-46
2022/06/04 09:20:39;;;;;;;5.03;3.30;;;25.30;1.00;;;;;;5015615;28;20045;-46
2022/06/04 09:23:13;;;;;;;6.28;3.38;;;25.40;1.00;;;;;;5016336;28;20033;-46
2022/06/04 09:25:57;;;;;;;5.82;2.95;;;25.40;1.00;;;;;;5015507;28;20494;-49
2022/06/04 09:28:50;;;;;;;6.13;3.25;;;25.40;1.00;;;;;;5016286;28;20484;-48
2022/06/04 09:31:31;;;;;;;5.28;3.25;;;25.40;1.00;;;;;;5010959;28;20049;-47
2022/06/04 09:34:02;;;;;;;5.80;3.00;;;25.40;1.00;;;;;;5016400;28;20022;-46
2022/06/04 09:36:32;;;;;;;4.97;3.30;;;25.50;1.00;;;;;;5002564;28;20432;-46
2022/06/04 09:39:02;;;;;;;4.05;2.97;;;25.70;1.00;;;;;;5016761;28;20022;-49
2022/06/04 09:41:31;;;;;;;5.70;4.07;;;25.80;1.00;;;;;;5014964;28;20034;-48
2022/06/04 09:44:13;;;;;;;4.20;3.38;;;25.90;1.00;;;;;;5015985;28;20018;-48
2022/06/04 09:46:43;;;;;;;5.47;3.92;;;25.90;1.00;;;;;;5014838;28;20109;-46
2022/06/04 09:49:32;;;;;;;5.75;3.95;;;26.00;1.00;;;;;;5016177;28;20391;-49
2022/06/04 09:51:59;;;;;;;10.38;4.35;;;26.10;1.00;;;;;;5013356;28;20041;-47
2022/06/04 09:54:35;;;;;;;5.95;4.03;;;26.10;1.00;;;;;;5015864;28;20306;-46
2022/06/04 09:57:03;;;;;;;6.20;4.57;;;26.20;1.00;;;;;;5014476;28;20033;-47
2022/06/04 09:59:32;;;;;;;6.50;3.92;;;26.30;1.00;;;;;;5015532;28;20025;-47
2022/06/04 10:02:01;;;;;;;6.05;3.95;;;26.30;1.00;;;;;;5012395;28;20369;-47
2022/06/04 10:05:04;;;;;;;7.60;3.58;;;26.40;1.00;;;;;;5014690;28;20030;-47
2022/06/04 10:07:33;;;;;;;4.10;3.70;;;26.50;1.00;;;;;;4973984;28;20509;-48
2022/06/04 10:10:01;;;;;;;6.10;3.75;;;26.60;1.00;;;;;;5015372;28;20026;-50
2022/06/04 10:15:33;;;;;;;4.78;3.85;;;26.60;1.00;;;;;;5014267;28;20088;-48
2022/06/04 10:18:20;;;;;;;5.30;3.45;;;26.70;1.00;;;;;;5015403;28;20431;-49
2022/06/04 10:20:59;;;;;;;5.20;3.40;;;26.80;1.00;;;;;;5014431;28;20407;-48
2022/06/04 10:23:26;;;;;;;5.13;3.95;;;26.80;1.00;;;;;;5014763;28;20488;-46
2022/06/04 10:26:18;;;;;;;8.05;3.42;;;26.90;1.00;;;;;;5010008;28;20033;-46
2022/06/04 10:29:07;;;;;;;5.93;3.80;;;27.00;1.00;;;;;;5002928;28;20034;-49
2022/06/04 10:31:58;;;;;;;6.18;3.70;;;27.00;1.00;;;;;;5014231;28;20037;-48
2022/06/04 10:34:30;;;;;;;6.50;3.60;;;27.20;1.00;;;;;;5015204;28;20124;-46
2022/06/04 10:37:02;;;;;;;4.00;3.58;;;27.30;1.00;;;;;;5013029;28;20068;-51
2022/06/04 10:39:47;;;;;;;7.80;3.47;;;27.30;1.00;;;;;;5004836;28;20376;-52
2022/06/04 10:42:32;;;;;;;4.28;3.67;;;27.30;1.00;;;;;;5010998;28;20029;-51
2022/06/04 10:45:00;;;;;;;7.43;3.90;;;27.30;1.00;;;;;;5014745;28;20025;-47
2022/06/04 10:47:31;;;;;;;6.57;3.75;;;27.30;1.00;;;;;;5002752;28;20093;-50
2022/06/04 10:50:16;;;;;;;4.80;3.83;;;27.30;1.00;;;;;;5011672;28;20036;-49
2022/06/04 10:52:51;;;;;;;5.38;3.55;;;27.40;1.00;;;;;;5006349;28;20120;-52
2022/06/04 10:55:29;;;;;;;6.22;4.03;;;27.50;1.00;;;;;;5012916;28;20507;-46
2022/06/04 10:58:15;;;;;;;6.75;4.00;;;27.70;1.00;;;;;;5007065;28;20128;-48
2022/06/04 11:00:46;;;;;;;6.28;3.75;;;27.70;1.00;;;;;;4999869;28;20030;-50
2022/06/04 11:03:14;;;;;;;4.20;3.85;;;27.80;1.00;;;;;;5014486;28;20025;-49
2022/06/04 11:05:47;;;;;;;5.55;3.75;;;28.00;1.00;;;;;;5003303;28;20164;-48
2022/06/04 11:08:22;;;;;;;5.30;3.80;;;28.20;1.00;;;;;;5014528;28;20025;-48
2022/06/04 11:10:57;;;;;;;5.30;4.25;;;28.10;1.00;;;;;;5013601;28;20289;-52
2022/06/04 11:13:37;;;;;;;6.57;4.68;;;28.20;1.00;;;;;;4999444;28;20538;-52
2022/06/04 11:16:41;;;;;;;5.88;3.80;;;28.40;1.00;;;;;;5003008;28;20037;-47
2022/06/04 11:19:33;;;;;;;5.70;4.20;;;28.50;1.00;;;;;;5013173;28;20109;-48
2022/06/04 11:22:26;;;;;;;5.85;4.10;;;28.80;1.00;;;;;;5012410;28;20045;-48
2022/06/04 11:25:08;;;;;;;4.68;3.85;;;29.10;1.00;;;;;;5012812;28;20028;-51
2022/06/04 11:27:41;;;;;;;4.60;3.80;;;29.50;1.00;;;;;;4996181;28;20030;-51
2022/06/04 11:30:15;;;;;;;5.90;3.95;;;29.90;1.00;;;;;;5012230;28;20057;-50
2022/06/04 11:32:56;;;;;;;5.45;4.50;;;30.20;1.00;;;;;;5013056;28;20033;-49
2022/06/04 11:35:44;;;;;;;5.70;4.10;;;30.30;1.00;;;;;;5011235;28;20080;-51
2022/06/04 11:38:34;;;;;;;7.32;4.50;;;30.40;1.00;;;;;;5008169;28;20389;-51
2022/06/04 11:41:27;;;;;;;4.72;4.07;;;30.40;1.00;;;;;;5002910;28;20084;-47
2022/06/04 11:44:20;;;;;;;5.82;4.60;;;31.20;1.00;;;;;;5013689;28;20070;-49
2022/06/04 11:47:15;;;;;;;24.25;7.72;;;31.60;1.00;;;;;;5007812;28;20049;-51
2022/06/04 11:50:34;;;;;;;36.75;7.53;;;32.20;1.00;;;;;;4999491;28;20049;-54
2022/06/04 11:53:12;;;;;;;5.55;4.45;;;33.60;1.00;;;;;;5007361;28;20033;-46
2022/06/04 11:55:46;;;;;;;6.53;3.88;;;34.70;1.00;;;;;;5013442;28;20079;-49
2022/06/04 11:58:48;;;;;;;6.40;4.45;;;35.30;1.00;;;;;;5020348;28;20578;-47
2022/06/04 12:01:18;;;;;;;8.60;4.45;;;35.20;1.00;;;;;;5012789;28;20108;-47
2022/06/04 12:03:58;;;;;;;5.55;4.82;;;34.70;1.00;;;;;;5011287;28;20391;-46
2022/06/04 12:06:46;;;;;;;6.18;4.78;;;34.20;1.00;;;;;;5012408;28;20034;-44
2022/06/04 12:09:20;;;;;;;5.50;5.00;;;34.10;1.00;;;;;;5013206;28;20058;-44
2022/06/04 12:12:04;;;;;;;7.55;5.20;;;34.20;1.00;;;;;;5012396;28;20041;-45
2022/06/04 12:15:01;;;;;;;7.75;5.25;;;34.60;1.00;;;;;;5013438;28;20022;-46
2022/06/04 12:17:42;;;;;;;5.80;5.28;;;35.30;1.00;;;;;;5011803;28;20063;-47
2022/06/04 12:26:37;;;;;;;6.68;6.10;;;34.30;1.00;;;;;;5011899;28;20535;-47
2022/06/04 12:36:02;;;;;;;7.03;6.38;;;34.40;1.00;;;;;;4980220;28;20054;-52
2022/06/04 12:38:28;;;;;;;6.95;6.07;;;34.20;1.00;;;;;;4987965;28;20022;-45
2022/06/04 12:41:19;;;;;;;6.38;5.35;;;35.80;1.00;;;;;;4990363;28;20492;-44
2022/06/04 12:43:48;;;;;;;5.88;5.30;;;37.30;1.00;;;;;;4990306;28;20125;-48
2022/06/04 12:46:28;;;;;;;5.63;5.10;;;37.70;1.00;;;;;;4971871;28;20057;-48
2022/06/04 12:48:59;;;;;;;8.52;5.70;;;36.50;1.00;;;;;;4990611;28;20026;-46
2022/06/04 12:51:40;;;;;;;5.40;4.90;;;36.50;1.00;;;;;;4986603;28;20113;-47
2022/06/04 12:54:17;;;;;;;6.18;5.65;;;36.90;1.00;;;;;;4964153;28;20026;-47
2022/06/04 12:56:51;;;;;;;6.00;5.50;;;37.90;1.00;;;;;;4984068;28;20054;-46
2022/06/04 12:59:47;;;;;;;7.85;7.05;;;39.50;1.00;;;;;;4991205;28;20041;-46
2022/06/04 13:02:30;;;;;;;7.68;7.00;;;40.70;1.00;;;;;;4961823;28;20038;-48
2022/06/04 13:05:28;;;;;;;8.68;7.32;;;40.50;1.00;;;;;;5012001;28;20049;-48
2022/06/04 13:08:03;;;;;;;8.68;6.88;;;39.30;1.00;;;;;;4993258;28;20030;-51
2022/06/04 13:10:34;;;;;;;7.43;6.65;;;37.40;1.00;;;;;;5005933;28;20121;-48
2022/06/04 13:13:14;;;;;;;7.30;6.57;;;36.70;1.00;;;;;;5011332;28;20120;-48
2022/06/04 13:15:52;;;;;;;6.85;6.25;;;36.50;1.00;;;;;;4999742;28;20113;-46
2022/06/04 13:18:28;;;;;;;6.82;6.07;;;36.80;1.00;;;;;;5011058;28;20029;-47
2022/06/04 13:21:05;;;;;;;8.68;5.70;;;37.30;1.00;;;;;;5012618;28;20558;-48
2022/06/04 13:23:40;;;;;;;7.07;6.38;;;37.00;1.00;;;;;;4999396;28;20109;-47
2022/06/04 13:26:17;;;;;;;8.07;6.47;;;36.90;1.00;;;;;;5011656;28;20452;-46
2022/06/04 13:28:46;;;;;;;6.85;6.28;;;36.40;1.00;;;;;;5000281;28;20026;-44
2022/06/04 13:31:30;;;;;;;6.93;6.28;;;36.40;1.00;;;;;;5011690;28;20042;-45
2022/06/04 13:33:58;;;;;;;7.60;6.85;;;35.90;1.00;;;;;;4999760;28;20025;-47
2022/06/04 13:36:29;;;;;;;7.13;6.45;;;36.30;1.00;;;;;;5012690;28;20037;-46
2022/06/04 13:39:00;;;;;;;6.85;6.25;;;36.50;1.00;;;;;;5016195;28;20419;-49
2022/06/04 13:44:27;;;;;;;9.75;6.75;;;37.40;1.00;;;;;;5016090;28;20137;-46
2022/06/04 13:47:05;;;;;;;7.13;6.10;;;38.00;1.00;;;;;;5015310;28;20057;-45
2022/06/04 13:49:30;;;;;;;6.65;5.47;;;38.30;1.00;;;;;;5014671;28;20092;-47
2022/06/04 13:52:09;;;;;;;7.53;5.78;;;37.60;1.00;;;;;;5014912;28;20475;-46
2022/06/04 13:54:38;;;;;;;8.32;6.22;;;37.30;1.00;;;;;;5016363;28;20119;-50
2022/06/04 13:57:22;;;;;;;7.40;5.68;;;37.20;1.00;;;;;;5014594;28;20038;-46
2022/06/04 13:59:49;;;;;;;7.90;5.82;;;36.80;1.00;;;;;;5015749;28;20033;-47
2022/06/04 14:02:19;;;;;;;6.88;5.80;;;36.20;1.00;;;;;;5014532;28;20033;-50